Time;durP1;ratioP1;P1;durP2;ratioP2;P2;SDS_P1;SDS_P2;PMS_P1;PMS_P2;Temp;Humidity;BMP_temperature;BMP_pressure;BME280_temperature;BME280_humidity;BME280_pressure;Samples;Min_cycle;Max_cycle;Signal;HPM_P1;HPM_P2
2021/01/13 00:01:40;;;;;;;13.32;1.42;;;;;;;;;;5049524;28;21845;-82
2021/01/13 00:04:09;;;;;;;14.82;1.58;;;;;;;;;;5054232;28;20509;-82
2021/01/13 00:06:35;;;;;;;8.20;1.05;;;;;;;;;;5048151;28;20088;-82
2021/01/13 00:09:02;;;;;;;15.63;1.63;;;;;;;;;;5061480;28;20062;-81
2021/01/13 00:11:29;;;;;;;6.68;1.40;;;;;;;;;;5062248;28;20186;-83
2021/01/13 00:13:55;;;;;;;17.25;1.52;;;;;;;;;;5054407;28;20525;-83
2021/01/13 00:16:23;;;;;;;14.60;2.28;;;;;;;;;;5078710;28;20052;-82
2021/01/13 00:18:55;;;;;;;15.65;1.77;;;;;;;;;;5055517;28;20076;-83
2021/01/13 00:21:22;;;;;;;22.10;1.75;;;;;;;;;;5065380;28;20098;-83
2021/01/13 00:23:49;;;;;;;9.27;1.08;;;;;;;;;;5058906;28;20102;-82
2021/01/13 00:26:22;;;;;;;13.93;1.85;;;;;;;;;;5044806;28;20514;-83
2021/01/13 00:28:50;;;;;;;14.73;1.38;;;;;;;;;;5060110;28;20124;-83
2021/01/13 00:31:19;;;;;;;18.25;2.13;;;;;;;;;;5047031;28;20048;-83
2021/01/13 00:33:50;;;;;;;14.80;1.90;;;;;;;;;;5058392;28;20048;-83
2021/01/13 00:36:20;;;;;;;22.30;1.55;;;;;;;;;;5071564;28;20048;-83
2021/01/13 00:38:46;;;;;;;20.58;1.80;;;;;;;;;;5052267;28;20053;-82
2021/01/13 00:41:18;;;;;;;13.23;1.77;;;;;;;;;;5058270;28;20485;-83
2021/01/13 00:43:45;;;;;;;12.45;1.77;;;;;;;;;;5056309;28;20095;-83
2021/01/13 00:46:12;;;;;;;26.42;2.58;;;;;;;;;;5058760;28;20474;-82
2021/01/13 00:48:41;;;;;;;9.38;1.67;;;;;;;;;;5057040;28;20049;-83
2021/01/13 00:51:07;;;;;;;27.58;1.90;;;;;;;;;;5063027;28;20127;-83
2021/01/13 00:53:34;;;;;;;10.70;1.75;;;;;;;;;;5052002;28;20053;-83
2021/01/13 00:56:04;;;;;;;25.45;1.90;;;;;;;;;;5060741;28;20080;-83
2021/01/13 00:58:31;;;;;;;14.50;2.65;;;;;;;;;;5053027;28;20056;-82
2021/01/13 01:01:03;;;;;;;19.48;2.00;;;;;;;;;;5052338;28;20049;-83
2021/01/13 01:03:30;;;;;;;13.13;1.90;;;;;;;;;;5054855;28;20901;-82
2021/01/13 01:06:19;;;;;;;19.65;1.73;;;;;;;;;;5064213;28;20056;-82
2021/01/13 01:08:46;;;;;;;11.85;1.30;;;;;;;;;;5060157;28;20045;-82
2021/01/13 01:11:15;;;;;;;24.30;1.67;;;;;;;;;;5057592;28;20049;-83
2021/01/13 01:13:43;;;;;;;25.88;2.28;;;;;;;;;;5054743;28;20048;-82
2021/01/13 01:16:16;;;;;;;23.95;1.80;;;;;;;;;;5050091;28;20056;-83
2021/01/13 01:18:45;;;;;;;17.25;2.00;;;;;;;;;;5063669;28;20048;-83
2021/01/13 01:21:13;;;;;;;18.92;1.63;;;;;;;;;;5057218;28;20045;-83
2021/01/13 01:23:40;;;;;;;14.57;2.17;;;;;;;;;;5054194;28;20132;-83
2021/01/13 01:26:07;;;;;;;9.52;1.55;;;;;;;;;;5045264;28;20562;-83
2021/01/13 01:28:33;;;;;;;24.60;1.42;;;;;;;;;;5060832;28;20037;-83
2021/01/13 01:31:04;;;;;;;14.07;1.70;;;;;;;;;;5050516;28;20040;-83
2021/01/13 01:33:30;;;;;;;13.43;1.63;;;;;;;;;;5045181;28;20055;-84
2021/01/13 01:36:10;;;;;;;16.35;1.70;;;;;;;;;;5050369;28;20561;-84
2021/01/13 01:38:37;;;;;;;10.70;1.17;;;;;;;;;;5050571;28;20103;-84
2021/01/13 01:41:15;;;;;;;11.07;0.88;;;;;;;;;;5060099;28;20053;-85
2021/01/13 01:43:45;;;;;;;15.52;2.03;;;;;;;;;;5052929;28;20041;-84
2021/01/13 01:46:20;;;;;;;9.18;1.38;;;;;;;;;;5057905;28;20117;-84
2021/01/13 01:48:53;;;;;;;11.65;1.42;;;;;;;;;;5071239;28;20072;-84
2021/01/13 01:51:38;;;;;;;19.25;1.52;;;;;;;;;;5061566;28;20158;-84
2021/01/13 01:54:05;;;;;;;15.00;1.52;;;;;;;;;;5044533;28;20450;-84
2021/01/13 01:56:42;;;;;;;15.45;1.52;;;;;;;;;;5045793;28;20059;-84
2021/01/13 01:59:09;;;;;;;13.80;1.35;;;;;;;;;;5045665;28;20064;-86
2021/01/13 02:01:42;;;;;;;18.00;1.08;;;;;;;;;;5052452;28;20053;-85
2021/01/13 02:04:37;;;;;;;9.45;1.42;;;;;;;;;;5057199;28;20127;-85
2021/01/13 02:07:07;;;;;;;4.93;1.00;;;;;;;;;;5053304;28;20087;-85
2021/01/13 02:09:33;;;;;;;12.98;1.00;;;;;;;;;;5049648;28;20045;-86
2021/01/13 02:12:00;;;;;;;16.90;2.00;;;;;;;;;;5059395;28;20075;-85
2021/01/13 02:14:41;;;;;;;7.90;0.65;;;;;;;;;;5044889;28;20089;-85
2021/01/13 02:17:11;;;;;;;7.18;0.82;;;;;;;;;;5053648;28;20059;-86
2021/01/13 02:19:48;;;;;;;11.45;1.38;;;;;;;;;;5052809;28;20878;-85
2021/01/13 02:22:16;;;;;;;10.35;1.58;;;;;;;;;;5058274;28;20431;-85
2021/01/13 02:25:04;;;;;;;7.78;0.88;;;;;;;;;;5065857;28;20113;-85
2021/01/13 02:27:52;;;;;;;6.07;1.05;;;;;;;;;;5061873;28;20549;-85
2021/01/13 02:30:29;;;;;;;8.15;1.00;;;;;;;;;;5055625;28;20037;-84
2021/01/13 02:33:24;;;;;;;6.75;0.95;;;;;;;;;;5047690;28;20045;-84
2021/01/13 02:36:06;;;;;;;13.13;1.05;;;;;;;;;;5061792;28;20055;-85
2021/01/13 02:38:52;;;;;;;8.32;1.10;;;;;;;;;;5069172;28;20048;-85
2021/01/13 02:41:28;;;;;;;15.63;0.98;;;;;;;;;;5067497;28;20133;-86
2021/01/13 02:43:55;;;;;;;5.97;0.80;;;;;;;;;;5065679;28;20077;-86
2021/01/13 02:46:41;;;;;;;6.65;0.77;;;;;;;;;;5058478;28;20050;-86
2021/01/13 02:49:07;;;;;;;;;;;;;;;;;;5061564;28;20045;-86
2021/01/13 02:51:36;;;;;;;6.75;0.60;;;;;;;;;;5051134;28;20631;-86
2021/01/13 02:54:12;;;;;;;8.07;1.20;;;;;;;;;;5062116;28;20793;-85
2021/01/13 02:56:49;;;;;;;9.82;0.82;;;;;;;;;;5048303;28;20087;-85
2021/01/13 02:59:17;;;;;;;17.27;1.15;;;;;;;;;;5073982;28;20052;-85
2021/01/13 03:01:49;;;;;;;3.50;1.02;;;;;;;;;;5053361;28;20106;-85
2021/01/13 03:04:16;;;;;;;4.18;0.73;;;;;;;;;;5042396;28;20041;-85
2021/01/13 03:06:44;;;;;;;9.07;1.20;;;;;;;;;;5049490;28;20045;-84
2021/01/13 03:09:13;;;;;;;9.55;1.05;;;;;;;;;;5061354;28;20060;-84
2021/01/13 03:11:40;;;;;;;6.30;0.82;;;;;;;;;;5064537;28;20045;-84
2021/01/13 03:14:11;;;;;;;4.63;1.05;;;;;;;;;;5066586;28;20098;-83
2021/01/13 03:16:43;;;;;;;2.40;0.60;;;;;;;;;;5047418;28;20045;-84
2021/01/13 03:19:16;;;;;;;7.13;1.30;;;;;;;;;;5051753;28;20505;-84
2021/01/13 03:21:55;;;;;;;10.80;1.42;;;;;;;;;;5071851;28;20101;-84
2021/01/13 03:24:28;;;;;;;9.60;1.42;;;;;;;;;;5055280;28;20135;-83
2021/01/13 03:26:56;;;;;;;8.40;1.15;;;;;;;;;;5065251;28;20075;-83
2021/01/13 03:29:23;;;;;;;6.80;0.95;;;;;;;;;;5050670;28;20073;-83
2021/01/13 03:32:11;;;;;;;5.72;1.23;;;;;;;;;;5051642;28;20084;-83
2021/01/13 03:34:51;;;;;;;6.55;1.23;;;;;;;;;;5044645;28;20102;-83
2021/01/13 03:37:22;;;;;;;6.85;1.30;;;;;;;;;;5085913;28;20135;-83
2021/01/13 03:39:49;;;;;;;6.10;0.95;;;;;;;;;;5066543;28;20052;-83
2021/01/13 03:42:17;;;;;;;17.85;1.42;;;;;;;;;;5054808;28;20045;-83
2021/01/13 03:44:46;;;;;;;14.73;1.63;;;;;;;;;;5053751;28;20054;-83
2021/01/13 03:47:38;;;;;;;18.23;1.58;;;;;;;;;;5062727;28;20095;-83
2021/01/13 03:50:19;;;;;;;13.05;1.20;;;;;;;;;;5062920;28;20604;-83
2021/01/13 03:53:06;;;;;;;5.68;1.20;;;;;;;;;;5056734;28;20525;-84
2021/01/13 03:55:34;;;;;;;12.27;1.48;;;;;;;;;;5063513;28;20497;-83
2021/01/13 03:58:10;;;;;;;7.28;1.50;;;;;;;;;;5071598;28;20044;-83
2021/01/13 04:00:59;;;;;;;6.88;1.42;;;;;;;;;;5062003;28;20052;-83
2021/01/13 04:03:45;;;;;;;8.95;1.05;;;;;;;;;;5053200;28;20044;-83
2021/01/13 04:06:13;;;;;;;6.20;1.48;;;;;;;;;;5058522;28;20568;-83
2021/01/13 04:08:41;;;;;;;5.13;1.00;;;;;;;;;;5065891;28;20086;-83
2021/01/13 04:11:08;;;;;;;21.75;1.50;;;;;;;;;;5064767;28;20052;-83
2021/01/13 04:13:41;;;;;;;9.10;1.10;;;;;;;;;;5065648;28;20126;-83
2021/01/13 04:16:18;;;;;;;12.25;1.23;;;;;;;;;;5057194;28;20095;-83
2021/01/13 04:18:47;;;;;;;7.45;1.13;;;;;;;;;;5047993;28;20541;-83
2021/01/13 04:21:22;;;;;;;22.80;2.35;;;;;;;;;;5052773;28;20073;-83
2021/01/13 04:23:49;;;;;;;7.22;0.98;;;;;;;;;;5052840;28;20099;-82
2021/01/13 04:26:16;;;;;;;12.20;1.40;;;;;;;;;;5062418;28;20067;-82
2021/01/13 04:28:48;;;;;;;9.10;1.00;;;;;;;;;;5065437;28;20048;-83
2021/01/13 04:31:14;;;;;;;8.98;1.13;;;;;;;;;;5056354;28;20049;-82
2021/01/13 04:33:42;;;;;;;12.57;1.38;;;;;;;;;;5055848;28;20102;-82
2021/01/13 04:36:09;;;;;;;9.70;1.30;;;;;;;;;;5061781;28;20088;-82
2021/01/13 04:38:38;;;;;;;8.23;1.13;;;;;;;;;;5061529;28;20084;-82
2021/01/13 04:41:10;;;;;;;8.70;1.02;;;;;;;;;;5060198;28;20061;-83
2021/01/13 04:43:58;;;;;;;9.48;1.08;;;;;;;;;;5051279;28;20560;-84
2021/01/13 04:46:32;;;;;;;5.68;0.50;;;;;;;;;;5051698;28;20086;-84
2021/01/13 04:49:13;;;;;;;12.00;1.20;;;;;;;;;;5059176;28;20076;-85
2021/01/13 04:51:41;;;;;;;6.72;0.80;;;;;;;;;;5061670;28;20041;-84
2021/01/13 04:54:13;;;;;;;10.85;1.20;;;;;;;;;;5056503;28;20597;-85
2021/01/13 04:56:45;;;;;;;7.00;1.30;;;;;;;;;;5060277;28;20104;-85
2021/01/13 04:59:28;;;;;;;6.28;0.60;;;;;;;;;;5056111;28;20132;-85
2021/01/13 05:02:12;;;;;;;11.60;1.30;;;;;;;;;;5045741;28;20110;-84
2021/01/13 05:05:03;;;;;;;7.57;0.85;;;;;;;;;;5055989;28;20052;-84
2021/01/13 05:07:31;;;;;;;4.60;0.90;;;;;;;;;;5052807;28;20402;-84
2021/01/13 05:10:03;;;;;;;7.63;1.15;;;;;;;;;;5057047;28;20083;-85
2021/01/13 05:12:44;;;;;;;14.30;1.77;;;;;;;;;;5054258;28;20362;-84
2021/01/13 05:15:15;;;;;;;8.52;1.35;;;;;;;;;;5047622;28;20045;-86
2021/01/13 05:18:01;;;;;;;7.75;1.35;;;;;;;;;;5052377;28;20148;-88
2021/01/13 05:20:29;;;;;;;4.70;1.50;;;;;;;;;;5065699;28;20068;-89
2021/01/13 05:23:11;;;;;;;8.50;2.00;;;;;;;;;;5067161;28;20060;-89
2021/01/13 05:25:42;;;;;;;6.50;1.67;;;;;;;;;;5055540;28;20052;-86
2021/01/13 05:28:10;;;;;;;12.63;2.15;;;;;;;;;;5056777;28;20045;-88
2021/01/13 05:30:38;;;;;;;8.20;1.73;;;;;;;;;;5045631;28;20099;-88
2021/01/13 05:33:06;;;;;;;15.02;2.72;;;;;;;;;;5048331;28;20045;-88
2021/01/13 05:35:38;;;;;;;18.35;2.72;;;;;;;;;;5064054;28;20151;-86
2021/01/13 05:38:28;;;;;;;15.38;2.67;;;;;;;;;;5062107;28;20076;-89
2021/01/13 05:40:55;;;;;;;23.45;3.38;;;;;;;;;;5037259;28;20131;-89
2021/01/13 05:43:42;;;;;;;18.92;3.80;;;;;;;;;;5068089;28;20049;-89
2021/01/13 05:46:11;;;;;;;15.52;3.05;;;;;;;;;;5056772;28;20045;-88
2021/01/13 05:48:57;;;;;;;13.95;3.75;;;;;;;;;;5053504;28;20092;-88
2021/01/13 05:51:42;;;;;;;22.00;4.47;;;;;;;;;;5087645;28;20119;-87
2021/01/13 05:54:10;;;;;;;;;;;;;;;;;;5044570;28;20732;-92
2021/01/13 05:56:55;;;;;;;14.50;4.70;;;;;;;;;;5045476;28;19921;-89
2021/01/13 05:59:27;;;;;;;21.85;4.97;;;;;;;;;;5049434;28;20399;-87
2021/01/13 06:01:54;;;;;;;29.42;4.97;;;;;;;;;;5046153;28;20656;-84
2021/01/13 06:04:23;;;;;;;19.83;4.93;;;;;;;;;;5060282;28;20054;-89
2021/01/13 06:07:08;;;;;;;32.20;4.57;;;;;;;;;;5046919;28;20792;-86
2021/01/13 06:09:40;;;;;;;22.38;4.60;;;;;;;;;;5043883;28;20142;-88
2021/01/13 06:12:15;;;;;;;;;;;;;;;;;;5047075;28;20401;-88
2021/01/13 06:14:42;;;;;;;24.85;4.93;;;;;;;;;;5055031;28;20038;-90
2021/01/13 06:17:20;;;;;;;21.92;3.83;;;;;;;;;;5053246;28;20071;-88
2021/01/13 06:20:12;;;;;;;17.90;4.15;;;;;;;;;;5048456;28;20056;-92
2021/01/13 06:22:53;;;;;;;21.70;3.90;;;;;;;;;;5050844;28;20053;-89
2021/01/13 06:25:42;;;;;;;14.88;3.60;;;;;;;;;;5060348;28;20045;-93
2021/01/13 06:28:27;;;;;;;26.90;3.67;;;;;;;;;;5057742;28;20098;-90
2021/01/13 06:31:09;;;;;;;14.85;3.15;;;;;;;;;;5048142;28;20710;-88
2021/01/13 06:33:56;;;;;;;15.77;3.75;;;;;;;;;;5051789;28;20131;-90
2021/01/13 06:36:34;;;;;;;13.13;3.63;;;;;;;;;;5044579;28;20482;-88
2021/01/13 06:39:05;;;;;;;16.90;4.57;;;;;;;;;;5051445;28;20072;-88
2021/01/13 06:41:44;;;;;;;16.15;4.65;;;;;;;;;;5057938;28;20079;-80
2021/01/13 06:44:10;;;;;;;15.48;4.10;;;;;;;;;;5052861;28;20132;-77
2021/01/13 06:46:39;;;;;;;20.27;4.72;;;;;;;;;;5060984;28;20412;-80
2021/01/13 06:49:12;;;;;;;24.10;4.70;;;;;;;;;;5050066;28;20041;-80
2021/01/13 06:51:49;;;;;;;20.92;4.28;;;;;;;;;;5045074;28;20453;-79
2021/01/13 06:54:17;;;;;;;18.63;5.60;;;;;;;;;;5061587;28;20048;-79
2021/01/13 06:56:55;;;;;;;21.77;5.47;;;;;;;;;;5053418;28;20142;-80
2021/01/13 06:59:22;;;;;;;25.88;5.38;;;;;;;;;;5052679;28;20103;-80
2021/01/13 07:01:56;;;;;;;19.23;5.97;;;;;;;;;;5055621;28;20053;-80
2021/01/13 07:04:24;;;;;;;23.38;6.32;;;;;;;;;;5052837;28;20045;-80
2021/01/13 07:06:57;;;;;;;22.77;5.95;;;;;;;;;;5058013;28;20052;-80
2021/01/13 07:09:24;;;;;;;21.63;5.53;;;;;;;;;;5057170;28;20206;-80
2021/01/13 07:11:51;;;;;;;18.50;4.82;;;;;;;;;;5059960;28;20057;-80
2021/01/13 07:14:18;;;;;;;22.02;5.75;;;;;;;;;;5063598;28;20548;-80
2021/01/13 07:16:45;;;;;;;30.30;6.88;;;;;;;;;;5058796;28;20143;-80
2021/01/13 07:19:12;;;;;;;26.20;4.63;;;;;;;;;;5057015;28;20458;-79
2021/01/13 07:21:42;;;;;;;19.08;4.05;;;;;;;;;;5063958;28;20500;-80
2021/01/13 07:24:31;;;;;;;26.85;4.72;;;;;;;;;;5059318;28;20517;-80
2021/01/13 07:26:58;;;;;;;13.05;3.55;;;;;;;;;;5059928;28;20045;-80
2021/01/13 07:29:27;;;;;;;20.25;4.55;;;;;;;;;;5057844;28;20486;-81
2021/01/13 07:32:13;;;;;;;11.60;3.70;;;;;;;;;;5054332;28;20675;-89
2021/01/13 07:34:45;;;;;;;16.92;3.38;;;;;;;;;;5062451;28;20060;-89
2021/01/13 07:37:25;;;;;;;11.02;3.15;;;;;;;;;;5052565;28;20547;-88
2021/01/13 07:40:00;;;;;;;16.02;3.40;;;;;;;;;;5059065;28;20052;-87
2021/01/13 07:42:36;;;;;;;22.42;3.17;;;;;;;;;;5063362;28;20076;-88
2021/01/13 07:45:12;;;;;;;14.90;2.58;;;;;;;;;;5063389;28;20076;-87
2021/01/13 07:48:03;;;;;;;19.88;3.70;;;;;;;;;;5065824;28;20128;-87
2021/01/13 07:50:39;;;;;;;16.05;3.38;;;;;;;;;;5054635;28;20041;-87
2021/01/13 07:53:09;;;;;;;15.23;2.75;;;;;;;;;;5054500;28;20140;-87
2021/01/13 07:55:42;;;;;;;10.25;3.58;;;;;;;;;;5050110;28;20053;-88
2021/01/13 07:58:19;;;;;;;16.25;3.50;;;;;;;;;;5063981;28;20099;-88
2021/01/13 08:01:00;;;;;;;23.05;4.72;;;;;;;;;;5056050;28;20087;-87
2021/01/13 08:03:46;;;;;;;16.85;4.30;;;;;;;;;;5053725;28;20863;-86
2021/01/13 08:06:13;;;;;;;;;;;;;;;;;;5071309;28;20102;-86
2021/01/13 08:09:10;;;;;;;17.63;4.57;;;;;;;;;;5056944;28;19928;-86
2021/01/13 08:11:42;;;;;;;18.20;4.43;;;;;;;;;;5053845;28;20122;-85
2021/01/13 08:14:29;;;;;;;16.83;5.00;;;;;;;;;;5062031;28;20559;-84
2021/01/13 08:16:58;;;;;;;17.02;4.75;;;;;;;;;;5060326;28;20110;-85
2021/01/13 08:19:44;;;;;;;19.70;4.68;;;;;;;;;;5057008;28;20460;-83
2021/01/13 08:22:19;;;;;;;18.17;5.00;;;;;;;;;;5062722;28;20136;-80
2021/01/13 08:24:50;;;;;;;25.10;6.22;;;;;;;;;;5052815;28;20110;-81
2021/01/13 08:27:21;;;;;;;19.55;5.40;;;;;;;;;;5061457;28;20040;-80
2021/01/13 08:29:55;;;;;;;26.02;5.68;;;;;;;;;;5062715;28;20049;-85
2021/01/13 08:32:26;;;;;;;30.30;7.32;;;;;;;;;;5054214;28;20717;-84
2021/01/13 08:35:02;;;;;;;28.17;7.35;;;;;;;;;;5061929;28;20056;-86
2021/01/13 08:37:32;;;;;;;29.67;7.75;;;;;;;;;;5061097;28;20053;-86
2021/01/13 08:40:03;;;;;;;28.77;7.63;;;;;;;;;;5047382;28;20068;-79
2021/01/13 08:42:30;;;;;;;34.03;8.15;;;;;;;;;;5060625;28;20110;-80
2021/01/13 08:44:58;;;;;;;30.52;9.80;;;;;;;;;;5059486;28;20455;-79
2021/01/13 08:47:28;;;;;;;38.90;9.82;;;;;;;;;;5059448;28;20048;-78
2021/01/13 08:50:11;;;;;;;51.42;9.75;;;;;;;;;;5057836;28;20162;-85
2021/01/13 08:52:48;;;;;;;30.60;9.70;;;;;;;;;;5040214;28;20041;-85
2021/01/13 08:55:18;;;;;;;43.40;10.88;;;;;;;;;;5063902;28;20051;-86
2021/01/13 08:57:54;;;;;;;50.47;12.00;;;;;;;;;;5060114;28;20270;-85
2021/01/13 09:00:35;;;;;;;43.50;13.00;;;;;;;;;;5053617;28;20493;-85
2021/01/13 09:03:11;;;;;;;43.33;13.60;;;;;;;;;;5053355;28;20053;-82
2021/01/13 09:05:42;;;;;;;39.92;13.45;;;;;;;;;;5055290;28;20060;-87
2021/01/13 09:08:12;;;;;;;50.10;13.82;;;;;;;;;;5046872;28;20049;-87
2021/01/13 09:10:49;;;;;;;42.25;12.32;;;;;;;;;;5056744;28;20048;-88
2021/01/13 09:13:31;;;;;;;37.95;12.20;;;;;;;;;;5057076;28;20410;-87
2021/01/13 09:15:58;;;;;;;32.72;12.10;;;;;;;;;;5056964;28;20144;-88
2021/01/13 09:18:37;;;;;;;43.13;10.18;;;;;;;;;;5064322;28;20052;-81
2021/01/13 09:21:04;;;;;;;32.25;10.30;;;;;;;;;;5054867;28;20618;-82
2021/01/13 09:23:30;;;;;;;40.83;9.95;;;;;;;;;;5052091;28;20041;-82
2021/01/13 09:26:01;;;;;;;25.38;9.32;;;;;;;;;;5061754;28;20101;-82
2021/01/13 09:28:29;;;;;;;27.38;9.40;;;;;;;;;;5060417;28;20597;-83
2021/01/13 09:31:11;;;;;;;28.90;8.98;;;;;;;;;;5051096;28;20048;-83
2021/01/13 09:33:41;;;;;;;26.10;8.77;;;;;;;;;;5056524;28;20048;-89
2021/01/13 09:36:08;;;;;;;26.65;8.95;;;;;;;;;;5055866;28;20080;-82
2021/01/13 09:38:36;;;;;;;24.60;8.05;;;;;;;;;;5052415;28;20060;-81
2021/01/13 09:41:06;;;;;;;22.25;8.38;;;;;;;;;;5059337;28;20136;-82
2021/01/13 09:43:46;;;;;;;26.33;8.60;;;;;;;;;;5051010;28;20052;-84
2021/01/13 09:46:25;;;;;;;24.45;8.77;;;;;;;;;;5063064;28;20102;-86
2021/01/13 09:49:14;;;;;;;25.85;9.38;;;;;;;;;;5059450;28;20056;-84
2021/01/13 09:51:41;;;;;;;24.33;8.75;;;;;;;;;;5051014;28;20448;-81
2021/01/13 09:54:12;;;;;;;31.10;10.00;;;;;;;;;;5057520;28;20509;-82
2021/01/13 09:56:39;;;;;;;26.05;9.48;;;;;;;;;;5056157;28;20045;-86
2021/01/13 09:59:07;;;;;;;32.95;9.45;;;;;;;;;;5063432;28;20049;-83
2021/01/13 10:01:38;;;;;;;24.13;9.65;;;;;;;;;;5059995;28;20091;-83
2021/01/13 10:04:11;;;;;;;30.48;9.88;;;;;;;;;;5060394;28;20055;-84
2021/01/13 10:06:42;;;;;;;25.92;9.93;;;;;;;;;;5052157;28;20052;-85
2021/01/13 10:09:18;;;;;;;29.98;10.07;;;;;;;;;;5059329;28;20410;-86
2021/01/13 10:11:46;;;;;;;26.08;10.27;;;;;;;;;;5054334;28;20055;-83
2021/01/13 10:14:14;;;;;;;33.22;10.05;;;;;;;;;;5069076;28;20048;-86
2021/01/13 10:16:43;;;;;;;23.00;9.02;;;;;;;;;;5059236;28;20051;-86
2021/01/13 10:19:13;;;;;;;26.20;9.20;;;;;;;;;;5059044;28;20489;-86
2021/01/13 10:22:03;;;;;;;24.23;8.98;;;;;;;;;;5060150;28;20049;-82
2021/01/13 10:24:31;;;;;;;24.45;9.18;;;;;;;;;;5059664;28;20044;-81
2021/01/13 10:27:00;;;;;;;25.13;8.45;;;;;;;;;;5050841;28;20567;-79
2021/01/13 10:29:32;;;;;;;19.73;6.75;;;;;;;;;;5050182;28;20102;-79
2021/01/13 10:31:59;;;;;;;19.08;7.38;;;;;;;;;;5052919;28;20124;-85
2021/01/13 10:34:26;;;;;;;23.30;7.28;;;;;;;;;;5055356;28;20151;-79
2021/01/13 10:36:53;;;;;;;15.38;5.93;;;;;;;;;;5057735;28;20532;-82
2021/01/13 10:39:27;;;;;;;20.98;5.78;;;;;;;;;;5050878;28;20665;-85
2021/01/13 10:41:55;;;;;;;19.48;6.43;;;;;;;;;;5035148;28;20053;-80
2021/01/13 10:44:29;;;;;;;20.88;6.63;;;;;;;;;;5058270;28;20390;-81
2021/01/13 10:46:59;;;;;;;17.80;5.25;;;;;;;;;;5060467;28;20489;-82
2021/01/13 10:49:26;;;;;;;22.27;6.13;;;;;;;;;;5058339;28;20053;-80
2021/01/13 10:51:54;;;;;;;16.10;5.10;;;;;;;;;;5058509;28;20080;-81
2021/01/13 10:54:26;;;;;;;19.98;5.28;;;;;;;;;;5061391;28;20072;-83
2021/01/13 10:56:56;;;;;;;11.85;4.53;;;;;;;;;;5053843;28;20052;-83
2021/01/13 10:59:23;;;;;;;15.07;4.53;;;;;;;;;;5061832;28;20080;-81
2021/01/13 11:01:52;;;;;;;26.10;5.00;;;;;;;;;;5053932;28;20445;-81
2021/01/13 11:04:26;;;;;;;14.13;4.88;;;;;;;;;;5061916;28;20527;-84
2021/01/13 11:06:59;;;;;;;18.98;6.10;;;;;;;;;;5052078;28;20152;-83
2021/01/13 11:09:28;;;;;;;14.40;5.47;;;;;;;;;;5062232;28;20045;-83
2021/01/13 11:11:56;;;;;;;20.77;5.97;;;;;;;;;;5049616;28;20064;-81
2021/01/13 11:14:35;;;;;;;19.80;6.18;;;;;;;;;;5060518;28;20060;-81
2021/01/13 11:17:14;;;;;;;28.67;7.30;;;;;;;;;;5061889;28;20454;-81
2021/01/13 11:20:00;;;;;;;22.98;6.30;;;;;;;;;;5053085;28;20053;-81
2021/01/13 11:22:44;;;;;;;14.88;5.55;;;;;;;;;;5057455;28;20049;-81
2021/01/13 11:25:43;;;;;;;15.73;5.50;;;;;;;;;;5057312;28;20045;-81
2021/01/13 11:28:13;;;;;;;16.80;4.07;;;;;;;;;;5050459;28;20695;-81
2021/01/13 11:30:44;;;;;;;20.45;4.68;;;;;;;;;;5052931;28;20049;-81
2021/01/13 11:33:15;;;;;;;20.50;4.18;;;;;;;;;;5052389;28;20397;-81
2021/01/13 11:35:47;;;;;;;18.33;4.22;;;;;;;;;;5058783;28;20106;-80
2021/01/13 11:38:32;;;;;;;20.58;3.58;;;;;;;;;;5053556;28;20056;-80
2021/01/13 11:41:13;;;;;;;22.65;4.18;;;;;;;;;;5061871;28;20098;-84
2021/01/13 11:43:57;;;;;;;14.75;3.10;;;;;;;;;;5054127;28;20632;-83
2021/01/13 11:46:49;;;;;;;12.82;2.85;;;;;;;;;;5062264;28;20066;-81
2021/01/13 11:49:41;;;;;;;14.23;2.90;;;;;;;;;;5061539;28;20698;-82
2021/01/13 11:52:09;;;;;;;9.05;3.13;;;;;;;;;;5060820;28;20045;-82
2021/01/13 11:54:36;;;;;;;23.25;3.13;;;;;;;;;;5062233;28;20468;-83
2021/01/13 11:57:17;;;;;;;16.98;3.53;;;;;;;;;;5063084;28;20083;-83
2021/01/13 11:59:44;;;;;;;17.55;3.28;;;;;;;;;;5055305;28;20128;-83
2021/01/13 12:02:21;;;;;;;16.73;3.08;;;;;;;;;;5045785;28;20045;-82
2021/01/13 12:04:49;;;;;;;15.18;3.17;;;;;;;;;;5059955;28;20080;-83
2021/01/13 12:07:17;;;;;;;13.20;2.70;;;;;;;;;;5057351;28;20049;-83
2021/01/13 12:10:07;;;;;;;18.10;2.55;;;;;;;;;;5061287;28;20098;-82
2021/01/13 12:12:37;;;;;;;20.42;5.35;;;;;;;;;;5054588;28;20452;-83
2021/01/13 12:15:08;;;;;;;10.13;3.13;;;;;;;;;;5063722;28;20057;-84
2021/01/13 12:18:01;;;;;;;14.50;3.17;;;;;;;;;;5055344;28;20456;-84
2021/01/13 12:20:32;;;;;;;16.60;3.13;;;;;;;;;;5064596;28;20049;-84
2021/01/13 12:23:21;;;;;;;13.18;3.47;;;;;;;;;;5057986;28;20084;-86
2021/01/13 12:25:49;;;;;;;14.45;3.47;;;;;;;;;;5053100;28;20158;-84
2021/01/13 12:28:18;;;;;;;20.27;3.90;;;;;;;;;;5061457;28;20103;-83
2021/01/13 12:31:00;;;;;;;28.42;3.75;;;;;;;;;;5053451;28;20052;-83
2021/01/13 12:36:24;;;;;;;31.52;4.00;;;;;;;;;;5057510;28;20795;-83
2021/01/13 12:38:53;;;;;;;18.42;4.13;;;;;;;;;;5060009;28;20056;-83
2021/01/13 12:41:30;;;;;;;15.05;3.05;;;;;;;;;;5060948;28;20082;-82
2021/01/13 12:44:01;;;;;;;13.07;2.90;;;;;;;;;;5061339;28;20631;-86
2021/01/13 12:46:29;;;;;;;12.45;2.90;;;;;;;;;;5061112;28;20052;-87
2021/01/13 12:48:56;;;;;;;17.80;2.78;;;;;;;;;;5062608;28;20076;-87
2021/01/13 12:51:31;;;;;;;14.38;2.65;;;;;;;;;;5062949;28;20519;-87
2021/01/13 12:53:58;;;;;;;;;;;;;;;;;;5063019;28;20052;-87
2021/01/13 12:56:26;;;;;;;19.35;3.55;;;;;;;;;;5061233;28;20388;-87
2021/01/13 12:58:54;;;;;;;12.18;2.85;;;;;;;;;;5059140;28;20070;-85
2021/01/13 13:01:22;;;;;;;20.88;2.35;;;;;;;;;;5060842;28;20055;-84
2021/01/13 13:03:55;;;;;;;7.07;2.55;;;;;;;;;;5051932;28;20838;-84
2021/01/13 13:06:29;;;;;;;15.13;2.60;;;;;;;;;;5055604;28;20142;-85
2021/01/13 13:08:58;;;;;;;18.77;3.17;;;;;;;;;;5055132;28;20088;-85
2021/01/13 13:11:26;;;;;;;6.38;2.67;;;;;;;;;;5054354;28;20056;-84
2021/01/13 13:13:53;;;;;;;19.45;2.53;;;;;;;;;;5059300;28;20073;-83
2021/01/13 13:16:21;;;;;;;21.08;2.75;;;;;;;;;;5064176;28;20056;-83
2021/01/13 13:18:49;;;;;;;14.00;2.75;;;;;;;;;;5061594;28;20055;-85
2021/01/13 13:21:19;;;;;;;24.35;2.60;;;;;;;;;;5046956;28;20053;-85
2021/01/13 13:23:54;;;;;;;8.35;2.13;;;;;;;;;;5063024;28;20098;-84
2021/01/13 13:26:21;;;;;;;12.80;2.28;;;;;;;;;;5053520;28;20757;-84
2021/01/13 13:28:56;;;;;;;11.88;2.60;;;;;;;;;;5057231;28;20040;-82
2021/01/13 13:31:23;;;;;;;14.45;2.88;;;;;;;;;;5055105;28;20104;-83
2021/01/13 13:33:57;;;;;;;13.18;3.08;;;;;;;;;;5064396;28;20052;-84
2021/01/13 13:36:24;;;;;;;15.23;2.63;;;;;;;;;;5053598;28;20064;-83
2021/01/13 13:38:55;;;;;;;17.95;2.42;;;;;;;;;;5052293;28;20056;-84
2021/01/13 13:41:23;;;;;;;14.32;2.55;;;;;;;;;;5059902;28;20045;-84
2021/01/13 13:43:49;;;;;;;12.32;2.42;;;;;;;;;;5060729;28;20056;-83
2021/01/13 13:46:16;;;;;;;12.50;2.67;;;;;;;;;;5059542;28;20084;-84
2021/01/13 13:48:43;;;;;;;5.57;2.15;;;;;;;;;;5049279;28;20444;-84
2021/01/13 13:51:24;;;;;;;17.13;2.78;;;;;;;;;;5059574;28;20591;-84
2021/01/13 13:53:50;;;;;;;14.25;2.45;;;;;;;;;;5061244;28;20049;-84
2021/01/13 13:56:18;;;;;;;12.13;2.20;;;;;;;;;;5060275;28;20049;-84
2021/01/13 13:58:45;;;;;;;10.25;2.00;;;;;;;;;;5055223;28;20133;-84
2021/01/13 14:01:11;;;;;;;7.35;1.48;;;;;;;;;;5055521;28;20049;-83
2021/01/13 14:03:39;;;;;;;21.38;2.20;;;;;;;;;;5054989;28;20049;-82
2021/01/13 14:06:08;;;;;;;12.95;1.38;;;;;;;;;;5056285;28;20051;-83
2021/01/13 14:08:47;;;;;;;8.70;0.85;;;;;;;;;;5059684;28;20096;-82
2021/01/13 14:11:13;;;;;;;7.65;1.05;;;;;;;;;;5060347;28;20048;-81
2021/01/13 14:13:41;;;;;;;7.40;1.42;;;;;;;;;;5060377;28;20127;-83
2021/01/13 14:16:13;;;;;;;12.38;1.60;;;;;;;;;;5060442;28;20639;-82
2021/01/13 14:18:41;;;;;;;7.63;1.80;;;;;;;;;;5064024;28;20080;-83
2021/01/13 14:21:13;;;;;;;11.50;1.98;;;;;;;;;;5064079;28;20938;-83
2021/01/13 14:23:41;;;;;;;10.80;1.65;;;;;;;;;;5053572;28;20389;-83
2021/01/13 14:26:12;;;;;;;7.38;1.58;;;;;;;;;;5060344;28;20081;-83
2021/01/13 14:28:40;;;;;;;16.98;2.05;;;;;;;;;;5041474;28;20439;-82
2021/01/13 14:31:06;;;;;;;16.08;2.05;;;;;;;;;;5052566;28;20048;-82
2021/01/13 14:33:33;;;;;;;6.20;2.03;;;;;;;;;;5059363;28;20098;-82
2021/01/13 14:36:03;;;;;;;10.80;1.55;;;;;;;;;;5068378;28;20102;-83
2021/01/13 14:38:30;;;;;;;4.60;1.10;;;;;;;;;;5055083;28;20048;-81
2021/01/13 14:40:57;;;;;;;9.32;1.02;;;;;;;;;;5055914;28;20084;-80
2021/01/13 14:43:23;;;;;;;7.03;1.13;;;;;;;;;;5052030;28;20433;-80
2021/01/13 14:45:50;;;;;;;6.40;1.42;;;;;;;;;;5050741;28;20132;-81
2021/01/13 14:48:16;;;;;;;11.15;1.50;;;;;;;;;;5060406;28;20106;-80
2021/01/13 14:50:44;;;;;;;8.32;1.50;;;;;;;;;;5054897;28;20048;-79
2021/01/13 14:53:12;;;;;;;14.18;1.63;;;;;;;;;;5053414;28;20166;-80
2021/01/13 14:55:38;;;;;;;10.70;1.50;;;;;;;;;;5058221;28;20088;-79
2021/01/13 14:58:05;;;;;;;11.35;1.80;;;;;;;;;;5058427;28;20056;-80
2021/01/13 15:00:32;;;;;;;13.25;1.73;;;;;;;;;;5050940;28;20073;-78
2021/01/13 15:02:59;;;;;;;17.08;1.80;;;;;;;;;;5051095;28;20079;-78
2021/01/13 15:05:25;;;;;;;16.45;1.75;;;;;;;;;;5058163;28;20077;-78
2021/01/13 15:07:52;;;;;;;6.70;1.40;;;;;;;;;;5057768;28;20068;-80
2021/01/13 15:10:18;;;;;;;19.65;1.60;;;;;;;;;;5055184;28;20049;-81